Time;durP1;ratioP1;P1;durP2;ratioP2;P2;SDS_P1;SDS_P2;PMS_P1;PMS_P2;Temp;Humidity;BMP_temperature;BMP_pressure;BME280_temperature;BME280_humidity;BME280_pressure;Samples;Min_cycle;Max_cycle;Signal;HPM_P1;HPM_P2
2022/08/10 00:00:38;;;;;;;7.32;1.90;;;24.90;56.30;;;;;;5028212;28;20021;-66
2022/08/10 00:03:06;;;;;;;4.90;1.77;;;24.90;56.40;;;;;;5054618;28;20504;-66
2022/08/10 00:05:32;;;;;;;6.35;1.80;;;24.90;56.30;;;;;;5027609;28;20021;-67
2022/08/10 00:07:57;;;;;;;3.80;1.67;;;24.80;56.10;;;;;;5028134;28;20052;-67
2022/08/10 00:10:23;;;;;;;3.75;1.60;;;24.90;56.20;;;;;;5027032;28;20028;-67
2022/08/10 00:12:49;;;;;;;5.50;1.60;;;24.80;56.10;;;;;;5024117;28;20033;-66
2022/08/10 00:15:18;;;;;;;5.93;1.65;;;24.80;56.10;;;;;;5026229;28;20029;-67
2022/08/10 00:17:44;;;;;;;6.32;1.70;;;24.80;56.10;;;;;;5026223;28;20021;-67
2022/08/10 00:20:10;;;;;;;5.97;1.70;;;24.80;56.20;;;;;;5026511;28;20410;-64
2022/08/10 00:22:36;;;;;;;4.80;1.80;;;24.80;56.10;;;;;;5025983;28;20028;-66
2022/08/10 00:25:02;;;;;;;5.55;1.90;;;24.80;56.10;;;;;;5027248;28;20026;-66
2022/08/10 00:27:28;;;;;;;4.80;1.83;;;24.80;56.10;;;;;;5026373;28;20033;-66
2022/08/10 00:29:53;;;;;;;5.72;1.77;;;24.80;56.10;;;;;;5026725;28;20060;-66
2022/08/10 00:32:19;;;;;;;4.18;1.70;;;24.80;56.10;;;;;;5026668;28;20034;-66
2022/08/10 00:34:45;;;;;;;5.47;1.90;;;24.80;56.10;;;;;;5027943;28;20030;-66
2022/08/10 00:37:12;;;;;;;5.32;1.60;;;24.80;56.10;;;;;;5027699;28;20041;-66
2022/08/10 00:39:37;;;;;;;4.80;1.58;;;24.80;56.10;;;;;;5027768;28;20045;-66
2022/08/10 00:42:07;;;;;;;6.85;1.80;;;24.80;56.10;;;;;;5025351;28;20509;-67
2022/08/10 00:44:43;;;;;;;4.93;1.55;;;24.80;56.10;;;;;;5028045;28;20520;-66
2022/08/10 00:47:09;;;;;;;4.32;1.90;;;24.70;56.00;;;;;;5027060;28;20129;-66
2022/08/10 00:49:34;;;;;;;5.80;1.95;;;24.70;56.00;;;;;;5026771;28;20609;-66
2022/08/10 00:52:00;;;;;;;4.90;1.70;;;24.80;57.10;;;;;;5026104;28;20094;-66
2022/08/10 00:54:26;;;;;;;5.80;1.67;;;24.80;56.10;;;;;;5026300;28;20100;-66
2022/08/10 00:56:52;;;;;;;5.07;1.60;;;24.70;56.00;;;;;;5047030;28;20026;-67
2022/08/10 00:59:18;;;;;;;4.65;1.60;;;24.70;56.00;;;;;;5025949;28;20029;-66
2022/08/10 01:01:43;;;;;;;4.40;1.55;;;24.70;56.00;;;;;;5025188;28;20017;-66
2022/08/10 01:04:09;;;;;;;3.78;1.52;;;24.70;56.00;;;;;;5026230;28;20035;-66
2022/08/10 01:06:44;;;;;;;5.47;1.75;;;24.70;56.00;;;;;;5025579;28;20049;-66
2022/08/10 01:09:28;;;;;;;4.20;1.50;;;24.70;56.00;;;;;;5022187;28;20134;-66
2022/08/10 01:12:16;;;;;;;5.18;1.70;;;24.70;56.10;;;;;;5024885;28;20029;-66
2022/08/10 01:14:57;;;;;;;3.63;1.40;;;24.70;56.10;;;;;;5029665;28;20367;-66
2022/08/10 01:17:39;;;;;;;3.85;1.70;;;24.60;56.00;;;;;;5057247;28;20121;-67
2022/08/10 01:20:19;;;;;;;4.50;1.70;;;24.60;56.00;;;;;;5025287;28;20052;-66
2022/08/10 01:23:06;;;;;;;5.00;1.60;;;24.60;56.10;;;;;;5052967;28;20087;-66
2022/08/10 01:25:51;;;;;;;4.60;1.45;;;24.60;56.10;;;;;;5026206;28;20026;-66
2022/08/10 01:28:38;;;;;;;5.85;1.70;;;24.60;56.10;;;;;;5026563;28;20045;-66
2022/08/10 01:31:04;;;;;;;4.93;1.60;;;24.60;56.10;;;;;;5028152;28;20025;-66
2022/08/10 01:33:39;;;;;;;3.90;1.40;;;24.60;56.20;;;;;;5029739;28;20022;-66
2022/08/10 01:36:10;;;;;;;5.85;1.52;;;24.60;56.30;;;;;;5028061;28;20014;-66
2022/08/10 01:38:41;;;;;;;4.75;1.55;;;24.60;56.10;;;;;;5027079;28;20033;-66
2022/08/10 01:41:06;;;;;;;5.03;1.65;;;24.60;56.10;;;;;;5041283;28;20018;-66
2022/08/10 01:43:33;;;;;;;4.40;1.58;;;24.60;56.10;;;;;;5029372;28;20041;-67
2022/08/10 01:46:00;;;;;;;4.05;1.40;;;24.60;56.10;;;;;;5030225;28;20027;-66
2022/08/10 01:48:35;;;;;;;5.70;1.60;;;24.60;56.20;;;;;;5028739;28;20040;-66
2022/08/10 01:51:09;;;;;;;5.20;1.70;;;24.60;56.20;;;;;;5019360;28;20470;-66
2022/08/10 01:53:40;;;;;;;3.85;1.55;;;24.60;56.20;;;;;;5028097;28;20036;-66
2022/08/10 01:56:06;;;;;;;3.55;1.30;;;24.60;56.20;;;;;;5033102;28;20540;-66
2022/08/10 01:58:32;;;;;;;3.90;1.42;;;24.60;56.20;;;;;;5026923;28;20033;-67
2022/08/10 02:00:57;;;;;;;4.22;1.70;;;24.60;56.20;;;;;;5029881;28;20029;-66
2022/08/10 02:03:24;;;;;;;5.40;1.70;;;24.60;56.20;;;;;;5028623;28;20502;-66
2022/08/10 02:05:53;;;;;;;4.55;1.67;;;24.50;56.10;;;;;;5026513;28;20045;-66
2022/08/10 02:08:18;;;;;;;4.68;1.67;;;24.60;56.20;;;;;;5038613;28;20038;-66
2022/08/10 02:10:44;;;;;;;2.75;1.50;;;24.50;56.10;;;;;;5038640;28;20083;-66
2022/08/10 02:13:10;;;;;;;3.95;1.50;;;24.50;56.20;;;;;;5030235;28;20116;-67
2022/08/10 02:15:35;;;;;;;4.75;1.48;;;24.50;56.20;;;;;;5029744;28;20032;-66
2022/08/10 02:18:02;;;;;;;3.92;1.60;;;24.50;56.20;;;;;;5028545;28;20036;-66
2022/08/10 02:20:33;;;;;;;3.17;1.35;;;24.50;56.20;;;;;;5029970;28;20037;-66
2022/08/10 02:23:01;;;;;;;3.63;1.40;;;24.50;56.20;;;;;;5024359;28;20037;-66
2022/08/10 02:25:27;;;;;;;3.35;1.65;;;24.50;56.20;;;;;;5029695;28;20029;-67
2022/08/10 02:27:53;;;;;;;3.95;1.55;;;24.50;56.20;;;;;;5056290;28;20051;-66
2022/08/10 02:30:19;;;;;;;3.65;1.45;;;24.50;56.30;;;;;;5054981;28;20530;-66
2022/08/10 02:32:45;;;;;;;4.10;1.70;;;24.50;56.20;;;;;;5028448;28;20030;-66
2022/08/10 02:35:11;;;;;;;3.70;1.63;;;24.50;56.20;;;;;;5053183;28;20022;-66
2022/08/10 02:37:38;;;;;;;4.05;1.60;;;24.50;56.20;;;;;;5029769;28;20065;-66
2022/08/10 02:40:04;;;;;;;4.40;1.40;;;24.50;56.20;;;;;;5029221;28;20121;-66
2022/08/10 02:42:47;;;;;;;2.95;1.40;;;24.40;56.20;;;;;;5029050;28;20018;-67
2022/08/10 02:45:27;;;;;;;5.55;1.63;;;24.50;56.30;;;;;;5028715;28;20018;-66
2022/08/10 02:48:04;;;;;;;4.50;1.73;;;24.40;57.20;;;;;;5025836;28;20494;-66
2022/08/10 02:50:34;;;;;;;2.83;1.60;;;24.40;56.30;;;;;;5008027;28;20022;-66
2022/08/10 02:53:27;;;;;;;4.00;1.65;;;24.40;56.30;;;;;;5027676;28;20505;-66
2022/08/10 02:56:20;;;;;;;3.72;1.40;;;24.40;56.30;;;;;;5024893;28;20136;-66
2022/08/10 02:58:52;;;;;;;4.25;1.60;;;24.40;56.20;;;;;;5025451;28;20120;-66
2022/08/10 03:01:20;;;;;;;3.35;1.50;;;24.40;56.30;;;;;;5024569;28;20075;-66
2022/08/10 03:03:57;;;;;;;3.42;1.60;;;24.40;56.40;;;;;;5034997;28;20053;-67
2022/08/10 03:06:25;;;;;;;3.47;1.50;;;24.40;56.40;;;;;;5028593;28;20021;-66
2022/08/10 03:08:50;;;;;;;2.53;1.45;;;24.40;56.40;;;;;;5024590;28;20108;-67
2022/08/10 03:11:22;;;;;;;3.88;1.45;;;24.40;56.40;;;;;;5021940;28;20180;-66
2022/08/10 03:13:48;;;;;;;2.95;1.50;;;24.40;56.40;;;;;;5009057;28;20033;-66
2022/08/10 03:16:14;;;;;;;4.32;1.60;;;24.40;56.50;;;;;;5024018;28;20029;-66
2022/08/10 03:18:39;;;;;;;3.35;1.63;;;24.40;56.50;;;;;;5024417;28;20566;-66
2022/08/10 03:21:05;;;;;;;2.63;1.38;;;24.30;56.40;;;;;;5026674;28;20490;-66
2022/08/10 03:23:31;;;;;;;3.63;1.50;;;24.30;56.40;;;;;;5024471;28;20118;-66
2022/08/10 03:25:56;;;;;;;3.25;1.55;;;24.30;56.40;;;;;;5026282;28;20037;-66
2022/08/10 03:28:23;;;;;;;2.70;1.45;;;24.30;57.50;;;;;;5008944;28;20529;-66
2022/08/10 03:30:49;;;;;;;4.15;1.50;;;24.30;56.50;;;;;;5025269;28;20154;-66
2022/08/10 03:33:15;;;;;;;3.85;1.70;;;24.30;56.50;;;;;;5026612;28;20497;-66
2022/08/10 03:35:40;;;;;;;4.63;1.42;;;24.30;56.50;;;;;;5055721;28;20018;-66
2022/08/10 03:38:06;;;;;;;6.05;1.67;;;24.30;56.50;;;;;;5025234;28;20029;-66
2022/08/10 03:40:34;;;;;;;1.95;1.42;;;24.30;56.50;;;;;;5025126;28;20053;-66
2022/08/10 03:42:59;;;;;;;2.85;1.40;;;24.30;56.60;;;;;;5018004;28;20613;-66
2022/08/10 03:45:25;;;;;;;3.72;1.73;;;24.30;56.60;;;;;;5025848;28;20098;-66
2022/08/10 03:47:51;;;;;;;3.63;1.42;;;24.30;56.60;;;;;;5025309;28;20036;-66
2022/08/10 03:50:16;;;;;;;2.47;1.50;;;24.30;56.60;;;;;;5025043;28;20159;-66
2022/08/10 03:52:42;;;;;;;5.30;1.75;;;24.30;56.60;;;;;;5025363;28;20021;-66
2022/08/10 03:55:08;;;;;;;3.97;1.55;;;24.30;56.70;;;;;;5022328;28;20041;-66
2022/08/10 03:57:34;;;;;;;3.30;1.50;;;24.30;56.70;;;;;;5024647;28;20021;-66
2022/08/10 04:00:00;;;;;;;3.67;1.40;;;24.30;56.70;;;;;;5021579;28;20053;-66
2022/08/10 04:02:25;;;;;;;3.50;1.30;;;24.30;56.70;;;;;;5025087;28;20075;-66
2022/08/10 04:04:51;;;;;;;4.13;1.55;;;24.20;56.60;;;;;;5037609;28;20029;-66
2022/08/10 04:07:17;;;;;;;3.88;1.50;;;24.20;56.60;;;;;;5025427;28;20029;-66
2022/08/10 04:09:42;;;;;;;4.10;1.60;;;24.20;56.70;;;;;;5025874;28;20560;-66
2022/08/10 04:12:08;;;;;;;3.13;1.50;;;24.20;56.70;;;;;;5025074;28;20021;-66
2022/08/10 04:14:34;;;;;;;2.20;1.30;;;24.20;56.60;;;;;;5024769;28;20498;-66
2022/08/10 04:16:59;;;;;;;2.72;1.30;;;24.20;56.70;;;;;;5024595;28;20033;-66
2022/08/10 04:19:25;;;;;;;3.03;1.40;;;24.20;56.70;;;;;;5025479;28;20028;-66
2022/08/10 04:22:06;;;;;;;2.83;1.40;;;24.20;56.70;;;;;;5026297;28;20035;-66
2022/08/10 04:24:31;;;;;;;3.67;1.50;;;24.20;56.70;;;;;;5025557;28;20029;-66
2022/08/10 04:26:57;;;;;;;2.88;1.48;;;24.20;56.70;;;;;;5035146;28;20041;-66
2022/08/10 04:29:23;;;;;;;2.88;1.42;;;24.20;56.70;;;;;;5022523;28;20076;-66
2022/08/10 04:31:48;;;;;;;1.98;1.40;;;24.10;56.60;;;;;;5025103;28;20048;-66
2022/08/10 04:34:14;;;;;;;2.90;1.40;;;24.20;56.70;;;;;;5024000;28;20146;-66
2022/08/10 04:36:42;;;;;;;3.17;1.30;;;24.10;56.60;;;;;;5024426;28;20064;-66
2022/08/10 04:39:09;;;;;;;4.60;1.80;;;24.10;56.60;;;;;;5048227;28;20076;-66
2022/08/10 04:41:35;;;;;;;3.30;1.30;;;24.20;56.70;;;;;;5025391;28;20091;-67
2022/08/10 04:44:01;;;;;;;3.20;1.50;;;24.20;56.70;;;;;;5025547;28;20026;-66
2022/08/10 04:46:26;;;;;;;3.35;1.50;;;24.10;56.70;;;;;;5026221;28;20103;-66
2022/08/10 04:48:52;;;;;;;2.83;1.40;;;24.10;56.70;;;;;;5027490;28;20589;-66
2022/08/10 04:51:18;;;;;;;2.83;1.40;;;24.10;56.60;;;;;;5025912;28;20022;-66
2022/08/10 04:53:44;;;;;;;3.95;1.55;;;24.10;56.70;;;;;;5025396;28;20021;-67
2022/08/10 04:56:09;;;;;;;3.33;1.52;;;24.10;56.70;;;;;;5058594;28;20510;-66
2022/08/10 04:58:35;;;;;;;2.35;1.27;;;24.10;56.60;;;;;;5026869;28;20080;-66
2022/08/10 05:01:01;;;;;;;2.35;1.23;;;24.10;56.80;;;;;;5024007;28;20104;-66
2022/08/10 05:03:27;;;;;;;4.05;1.45;;;24.10;56.70;;;;;;5027511;28;20025;-66
2022/08/10 05:05:52;;;;;;;2.78;1.60;;;24.10;56.80;;;;;;5027102;28;20456;-66
2022/08/10 05:08:18;;;;;;;2.10;1.10;;;24.10;56.70;;;;;;5028713;28;20438;-66
2022/08/10 05:10:44;;;;;;;2.42;1.40;;;24.10;56.70;;;;;;5026910;28;20371;-66
2022/08/10 05:13:09;;;;;;;2.78;1.40;;;24.00;56.70;;;;;;5028751;28;20546;-66
2022/08/10 05:15:35;;;;;;;7.00;1.58;;;24.10;56.80;;;;;;5030177;28;20528;-66
2022/08/10 05:18:03;;;;;;;6.60;2.10;;;24.10;57.10;;;;;;5029802;28;20037;-67
2022/08/10 05:20:30;;;;;;;15.40;3.72;;;24.10;57.40;;;;;;5031144;28;20076;-67
2022/08/10 05:22:56;;;;;;;16.50;4.22;;;24.00;57.80;;;;;;5029969;28;20038;-68
2022/08/10 05:25:21;;;;;;;20.13;4.65;;;24.00;58.30;;;;;;5031267;28;20030;-68
2022/08/10 05:27:47;;;;;;;19.13;4.93;;;24.00;58.70;;;;;;5030323;28;20111;-67
2022/08/10 05:30:17;;;;;;;17.13;4.78;;;24.00;58.90;;;;;;5030034;28;20045;-67
2022/08/10 05:32:42;;;;;;;16.85;4.68;;;24.00;59.20;;;;;;5030208;28;20099;-66
2022/08/10 05:35:08;;;;;;;16.02;4.60;;;23.90;59.20;;;;;;5025430;28;20018;-65
2022/08/10 05:37:34;;;;;;;13.15;3.85;;;23.90;59.10;;;;;;5027992;28;20025;-65
2022/08/10 05:40:01;;;;;;;16.05;4.10;;;24.00;58.80;;;;;;5029222;28;20030;-65
2022/08/10 05:42:28;;;;;;;12.80;3.60;;;24.00;59.00;;;;;;5029528;28;20029;-65
2022/08/10 05:44:54;;;;;;;13.95;3.65;;;24.00;58.60;;;;;;5031254;28;20033;-65
2022/08/10 05:47:20;;;;;;;13.13;3.30;;;24.00;58.90;;;;;;5029929;28;20185;-67
2022/08/10 05:49:49;;;;;;;15.55;4.07;;;24.00;58.80;;;;;;5029686;28;20470;-67
2022/08/10 05:52:15;;;;;;;12.48;3.28;;;24.00;58.90;;;;;;5029371;28;20090;-67
2022/08/10 05:54:41;;;;;;;10.98;3.50;;;24.00;58.90;;;;;;5029934;28;20539;-67
2022/08/10 05:57:07;;;;;;;12.90;3.65;;;24.00;59.00;;;;;;5029874;28;20042;-67
2022/08/10 05:59:34;;;;;;;14.40;3.63;;;24.10;58.90;;;;;;5029138;28;20098;-67
2022/08/10 06:02:02;;;;;;;12.85;3.47;;;24.10;59.00;;;;;;5054973;28;20452;-67
2022/08/10 06:04:30;;;;;;;13.13;3.65;;;24.10;58.70;;;;;;5028171;28;20075;-67
2022/08/10 06:06:56;;;;;;;13.80;3.60;;;24.10;58.70;;;;;;5025771;28;20045;-67
2022/08/10 06:09:22;;;;;;;11.80;3.40;;;24.10;58.80;;;;;;5037544;28;20585;-67
2022/08/10 06:11:48;;;;;;;13.55;3.78;;;24.10;58.70;;;;;;5029851;28;20022;-67
2022/08/10 06:16:57;;;;;;;10.75;3.20;;;24.00;58.70;;;;;;5026724;28;20056;-66
2022/08/10 06:19:23;;;;;;;10.85;3.22;;;24.10;58.70;;;;;;5038244;28;20057;-67
2022/08/10 06:21:48;;;;;;;10.70;3.08;;;24.10;58.60;;;;;;5028914;28;20029;-67
2022/08/10 06:24:16;;;;;;;10.90;3.17;;;24.10;58.60;;;;;;5029857;28;20451;-67
2022/08/10 06:26:43;;;;;;;10.15;2.80;;;24.10;58.60;;;;;;5012006;28;20103;-67
2022/08/10 06:29:12;;;;;;;11.63;3.20;;;24.10;58.50;;;;;;5028287;28;20040;-66
2022/08/10 06:31:39;;;;;;;9.25;2.88;;;24.10;58.50;;;;;;5052465;28;20067;-66
2022/08/10 06:34:07;;;;;;;11.40;3.00;;;24.10;58.50;;;;;;5030223;28;20099;-67
2022/08/10 06:36:33;;;;;;;6.57;2.58;;;24.10;58.40;;;;;;5041956;28;20020;-66
2022/08/10 06:38:58;;;;;;;10.60;2.97;;;24.10;58.40;;;;;;5029015;28;20799;-66
2022/08/10 06:41:25;;;;;;;8.07;2.70;;;24.10;58.30;;;;;;5028604;28;20032;-67
2022/08/10 06:44:02;;;;;;;10.52;3.65;;;24.10;58.40;;;;;;5028249;28;20077;-67
2022/08/10 06:46:28;;;;;;;10.73;3.42;;;24.10;58.30;;;;;;5027570;28;20025;-67
2022/08/10 06:48:58;;;;;;;9.13;2.80;;;24.10;58.30;;;;;;5036537;28;20037;-67
2022/08/10 06:51:33;;;;;;;9.70;3.00;;;24.10;58.30;;;;;;5023626;28;20044;-67
2022/08/10 06:54:09;;;;;;;8.13;2.70;;;24.10;58.10;;;;;;5029126;28;20044;-67
2022/08/10 06:56:39;;;;;;;9.57;3.30;;;24.10;58.10;;;;;;5014465;28;20096;-66
2022/08/10 06:59:21;;;;;;;9.10;3.20;;;24.10;58.00;;;;;;5028178;28;20032;-67
2022/08/10 07:01:56;;;;;;;8.65;2.88;;;24.10;58.40;;;;;;5023728;28;20078;-67
2022/08/10 07:04:48;;;;;;;11.02;3.08;;;24.10;58.20;;;;;;5028533;28;20029;-66
2022/08/10 07:07:16;;;;;;;9.23;2.92;;;24.10;58.40;;;;;;5031263;28;20052;-66
2022/08/10 07:09:42;;;;;;;7.22;2.80;;;24.10;58.40;;;;;;5026394;28;20052;-66
2022/08/10 07:12:08;;;;;;;9.57;2.97;;;24.20;58.10;;;;;;5027350;28;20062;-67
2022/08/10 07:14:36;;;;;;;9.60;3.00;;;24.10;58.50;;;;;;5051628;28;20037;-67
2022/08/10 07:17:02;;;;;;;8.18;2.63;;;24.10;58.40;;;;;;5040019;28;20476;-66
2022/08/10 07:19:28;;;;;;;7.30;2.70;;;24.20;58.50;;;;;;5028915;28;20033;-67
2022/08/10 07:21:53;;;;;;;9.25;2.95;;;24.20;58.50;;;;;;5028009;28;20111;-67
2022/08/10 07:24:19;;;;;;;6.82;2.72;;;24.20;58.40;;;;;;5028130;28;20437;-66
2022/08/10 07:26:49;;;;;;;7.57;2.67;;;24.20;58.40;;;;;;5032057;28;20033;-67
2022/08/10 07:29:16;;;;;;;8.38;3.00;;;24.20;58.40;;;;;;5026024;28;20458;-67
2022/08/10 07:31:42;;;;;;;7.60;2.65;;;24.20;58.20;;;;;;5027790;28;20033;-66
2022/08/10 07:34:08;;;;;;;9.50;3.13;;;24.20;57.90;;;;;;5035331;28;20079;-67
2022/08/10 07:36:34;;;;;;;6.60;2.63;;;24.30;58.20;;;;;;5035723;28;20037;-67
2022/08/10 07:39:00;;;;;;;7.47;2.95;;;24.30;58.40;;;;;;5026407;28;20045;-67
2022/08/10 07:41:29;;;;;;;7.32;2.70;;;24.30;59.20;;;;;;5027710;28;20033;-67
2022/08/10 07:43:55;;;;;;;9.50;2.60;;;24.30;58.20;;;;;;5027635;28;20025;-67
2022/08/10 07:46:21;;;;;;;9.38;3.00;;;24.30;58.30;;;;;;5055486;28;20039;-66
2022/08/10 07:48:49;;;;;;;9.35;2.92;;;24.30;58.40;;;;;;5028035;28;20037;-67
2022/08/10 07:51:17;;;;;;;9.25;2.83;;;24.30;58.10;;;;;;5027948;28;20018;-67
2022/08/10 07:53:49;;;;;;;7.43;2.50;;;24.30;58.10;;;;;;5009929;28;20475;-66
2022/08/10 07:56:15;;;;;;;9.05;2.60;;;24.30;58.10;;;;;;5027202;28;20049;-67
2022/08/10 07:58:47;;;;;;;8.75;2.72;;;24.30;58.10;;;;;;5026065;28;20024;-67
2022/08/10 08:01:13;;;;;;;7.32;2.72;;;24.40;57.80;;;;;;5026127;28;20047;-67
2022/08/10 08:03:39;;;;;;;7.68;2.70;;;24.40;57.90;;;;;;5027547;28;20076;-66
2022/08/10 08:06:04;;;;;;;7.85;2.75;;;24.40;58.20;;;;;;5058376;28;20469;-67
2022/08/10 08:08:30;;;;;;;8.82;2.90;;;24.40;57.80;;;;;;5026926;28;20517;-67
2022/08/10 08:10:56;;;;;;;6.70;2.47;;;24.40;57.90;;;;;;5026418;28;20087;-67
2022/08/10 08:13:22;;;;;;;9.07;2.70;;;24.40;57.80;;;;;;5034760;28;20379;-67
2022/08/10 08:15:48;;;;;;;8.95;3.00;;;24.40;57.70;;;;;;5024991;28;20124;-66
2022/08/10 08:18:14;;;;;;;10.35;2.63;;;24.40;58.20;;;;;;5026431;28;20021;-67
2022/08/10 08:20:40;;;;;;;6.93;2.80;;;24.40;58.10;;;;;;5026693;28;20083;-67
2022/08/10 08:23:05;;;;;;;8.13;2.65;;;24.40;58.40;;;;;;5026842;28;20501;-66
2022/08/10 08:25:31;;;;;;;7.70;2.88;;;24.40;58.50;;;;;;5026860;28;20683;-67
2022/08/10 08:27:58;;;;;;;7.72;3.10;;;24.50;58.40;;;;;;5026549;28;20115;-67
2022/08/10 08:30:23;;;;;;;7.78;2.85;;;24.50;58.50;;;;;;5036398;28;20025;-66
2022/08/10 08:32:49;;;;;;;8.18;2.72;;;24.50;58.60;;;;;;5024316;28;20401;-67
2022/08/10 08:35:17;;;;;;;7.15;2.80;;;24.50;58.50;;;;;;5024545;28;20052;-66
2022/08/10 08:37:47;;;;;;;8.38;3.00;;;24.50;58.60;;;;;;5050268;28;20371;-66
2022/08/10 08:40:22;;;;;;;8.38;3.00;;;24.60;58.60;;;;;;5034028;28;20069;-67
2022/08/10 08:42:54;;;;;;;10.80;2.90;;;24.60;58.60;;;;;;5022933;28;20129;-67
2022/08/10 08:45:33;;;;;;;8.52;3.00;;;24.60;58.60;;;;;;5025479;28;20025;-67
2022/08/10 08:48:36;;;;;;;6.78;2.90;;;24.60;58.60;;;;;;5045471;28;20042;-66
2022/08/10 08:51:24;;;;;;;7.75;2.88;;;24.60;58.60;;;;;;5026184;28;20029;-66
2022/08/10 08:54:07;;;;;;;6.22;2.45;;;24.60;58.70;;;;;;5051598;28;20026;-66
2022/08/10 08:57:03;;;;;;;7.70;2.60;;;24.70;58.50;;;;;;5022770;28;20056;-67
2022/08/10 08:59:48;;;;;;;9.25;3.03;;;24.70;58.50;;;;;;5018675;28;20058;-67
2022/08/10 09:02:43;;;;;;;8.63;3.20;;;24.70;58.50;;;;;;5004089;28;20048;-67
2022/08/10 09:05:40;;;;;;;8.02;2.92;;;24.70;58.40;;;;;;5001641;28;20292;-66
2022/08/10 09:08:14;;;;;;;7.32;2.83;;;24.70;58.40;;;;;;5004015;28;20551;-67
2022/08/10 09:10:45;;;;;;;6.93;2.92;;;24.70;58.40;;;;;;5005001;28;20126;-67
2022/08/10 09:13:42;;;;;;;8.30;3.00;;;24.80;58.50;;;;;;5021173;28;20036;-66
2022/08/10 09:16:33;;;;;;;8.70;2.80;;;24.80;58.30;;;;;;4989166;28;20092;-66
2022/08/10 09:19:07;;;;;;;6.70;2.75;;;24.80;58.20;;;;;;5003286;28;20065;-66
2022/08/10 09:21:46;;;;;;;6.67;2.80;;;24.80;58.30;;;;;;5021483;28;20033;-67
2022/08/10 09:24:35;;;;;;;8.68;2.75;;;24.80;58.20;;;;;;5022000;28;20299;-66
2022/08/10 09:27:06;;;;;;;5.88;2.50;;;24.90;58.20;;;;;;5002449;28;20053;-67
2022/08/10 09:29:33;;;;;;;7.78;2.60;;;24.90;58.30;;;;;;5021436;28;20655;-67
2022/08/10 09:32:12;;;;;;;6.85;2.78;;;24.90;58.30;;;;;;5002413;28;20038;-67
2022/08/10 09:35:05;;;;;;;7.85;2.95;;;24.90;58.20;;;;;;5004040;28;20026;-66
2022/08/10 09:37:55;;;;;;;7.13;2.63;;;24.90;58.20;;;;;;5020441;28;20037;-66
2022/08/10 09:40:44;;;;;;;6.35;3.00;;;24.90;58.10;;;;;;5018551;28;20063;-66
2022/08/10 09:43:37;;;;;;;5.78;2.80;;;24.90;58.00;;;;;;5021724;28;20757;-65
2022/08/10 09:46:21;;;;;;;7.88;2.53;;;25.00;58.30;;;;;;5022783;28;20065;-67
2022/08/10 09:49:01;;;;;;;10.37;2.57;;;25.00;58.10;;;;;;5024510;28;20398;-66
2022/08/10 09:51:47;;;;;;;9.45;2.92;;;25.00;58.00;;;;;;5024375;28;20029;-67
2022/08/10 09:54:38;;;;;;;8.30;3.08;;;25.00;58.00;;;;;;5029893;28;20037;-66
2022/08/10 09:57:41;;;;;;;7.50;2.90;;;25.10;58.10;;;;;;5026392;28;20116;-66
2022/08/10 10:00:11;;;;;;;6.97;2.70;;;25.10;58.10;;;;;;5024667;28;20112;-67
2022/08/10 10:02:58;;;;;;;7.38;2.60;;;25.10;58.00;;;;;;5025534;28;20383;-66
2022/08/10 10:05:45;;;;;;;8.70;2.97;;;25.10;58.20;;;;;;5029874;28;20025;-67
2022/08/10 10:08:19;;;;;;;9.48;2.90;;;25.20;57.90;;;;;;5029637;28;20421;-66
2022/08/10 10:11:15;;;;;;;6.78;2.50;;;25.20;58.10;;;;;;5052903;28;20028;-65
2022/08/10 10:13:55;;;;;;;7.82;2.92;;;25.20;58.10;;;;;;5051406;28;20061;-66
2022/08/10 10:16:32;;;;;;;6.85;2.60;;;25.20;58.60;;;;;;5026188;28;20397;-67
2022/08/10 10:19:09;;;;;;;6.60;2.67;;;25.20;58.20;;;;;;5027296;28;20501;-67
2022/08/10 10:22:06;;;;;;;9.65;2.70;;;25.30;58.10;;;;;;5029375;28;20108;-68
2022/08/10 10:24:39;;;;;;;8.27;2.78;;;25.30;58.10;;;;;;5025750;28;20040;-65
2022/08/10 10:27:46;;;;;;;6.70;2.60;;;25.30;58.00;;;;;;5029347;28;20038;-65
2022/08/10 10:30:13;;;;;;;8.18;2.50;;;25.40;57.90;;;;;;5048834;28;20037;-68
2022/08/10 10:32:51;;;;;;;7.88;2.65;;;25.40;58.00;;;;;;5039359;28;20029;-66
2022/08/10 10:35:40;;;;;;;7.72;2.65;;;25.40;58.20;;;;;;5030127;28;20517;-66
2022/08/10 10:38:06;;;;;;;9.70;2.45;;;25.40;58.10;;;;;;5029926;28;20489;-66
2022/08/10 10:40:48;;;;;;;7.20;2.45;;;25.40;58.50;;;;;;5053174;28;20030;-67
2022/08/10 10:43:43;;;;;;;6.05;2.50;;;25.40;58.20;;;;;;5026106;28;20017;-66
2022/08/10 10:46:30;;;;;;;10.63;2.90;;;25.40;58.00;;;;;;5025966;28;20037;-67
2022/08/10 10:49:36;;;;;;;7.68;2.67;;;25.50;58.10;;;;;;5029527;28;20033;-65
2022/08/10 10:52:37;;;;;;;6.63;2.38;;;25.50;58.10;;;;;;5026364;28;20564;-68
2022/08/10 10:55:21;;;;;;;6.47;2.70;;;25.50;58.10;;;;;;5028399;28;20544;-65
2022/08/10 10:58:00;;;;;;;7.05;2.50;;;25.50;57.80;;;;;;5026482;28;20063;-67
2022/08/10 11:00:28;;;;;;;8.95;2.95;;;25.50;58.30;;;;;;5050160;28;20029;-66
2022/08/10 11:03:17;;;;;;;6.40;2.72;;;25.50;58.30;;;;;;5037338;28;20029;-67
2022/08/10 11:05:58;;;;;;;10.70;2.85;;;25.50;58.30;;;;;;5026741;28;20510;-67
2022/08/10 11:08:27;;;;;;;8.50;2.67;;;25.60;58.40;;;;;;5028104;28;20116;-67
2022/08/10 11:11:13;;;;;;;9.60;2.90;;;25.60;58.30;;;;;;5028230;28;20033;-67
2022/08/10 11:13:57;;;;;;;10.43;2.75;;;25.60;58.20;;;;;;5026302;28;20032;-66
2022/08/10 11:16:58;;;;;;;10.05;3.40;;;25.60;58.30;;;;;;5022641;28;20508;-66
2022/08/10 11:19:41;;;;;;;8.32;3.33;;;25.60;58.30;;;;;;5028464;28;20029;-66
2022/08/10 11:22:20;;;;;;;11.20;3.08;;;25.70;58.40;;;;;;5011120;28;20036;-67
2022/08/10 11:25:19;;;;;;;9.18;3.33;;;25.70;58.30;;;;;;5050570;28;20036;-67
2022/08/10 11:28:02;;;;;;;11.35;3.00;;;25.70;58.30;;;;;;5026701;28;20040;-66
2022/08/10 11:30:51;;;;;;;9.50;3.13;;;25.70;58.30;;;;;;5048027;28;20034;-67
2022/08/10 11:33:42;;;;;;;12.25;3.33;;;25.70;58.30;;;;;;5025288;28;20025;-67
2022/08/10 11:36:42;;;;;;;10.15;3.08;;;25.70;58.30;;;;;;5027372;28;20034;-67
2022/08/10 11:39:45;;;;;;;10.13;3.10;;;25.70;58.30;;;;;;5036193;28;20072;-66
2022/08/10 11:42:14;;;;;;;11.48;3.03;;;25.80;58.30;;;;;;5046486;28;20087;-67
2022/08/10 11:44:45;;;;;;;10.30;3.60;;;25.80;58.30;;;;;;5028944;28;21074;-67
2022/08/10 11:47:12;;;;;;;10.88;3.42;;;25.80;58.30;;;;;;5059244;28;20120;-67
2022/08/10 11:49:52;;;;;;;11.10;3.35;;;25.80;58.30;;;;;;5028070;28;20022;-65
2022/08/10 11:52:35;;;;;;;10.27;3.30;;;25.80;58.20;;;;;;5035780;28;20033;-67
2022/08/10 11:55:12;;;;;;;9.18;3.50;;;25.90;58.30;;;;;;5025377;28;20045;-66
2022/08/10 11:57:38;;;;;;;10.52;2.97;;;25.90;58.20;;;;;;5027195;28;20532;-67
2022/08/10 12:00:06;;;;;;;12.40;3.30;;;25.90;58.30;;;;;;5027263;28;20065;-66
2022/08/10 12:02:32;;;;;;;11.23;3.20;;;26.00;58.30;;;;;;5026360;28;20037;-66
2022/08/10 12:05:18;;;;;;;9.55;3.10;;;25.90;58.30;;;;;;5025829;28;20027;-66
2022/08/10 12:07:52;;;;;;;10.82;3.50;;;26.00;58.30;;;;;;5026449;28;20030;-67
2022/08/10 12:10:19;;;;;;;8.98;3.28;;;26.00;58.30;;;;;;5026422;28;20024;-66
2022/08/10 12:12:53;;;;;;;9.13;3.33;;;26.10;58.30;;;;;;5034630;28;20057;-67
2022/08/10 12:15:33;;;;;;;12.57;3.60;;;26.00;58.30;;;;;;5008023;28;20021;-67
2022/08/10 12:18:02;;;;;;;6.88;2.90;;;26.10;59.20;;;;;;5026237;28;20533;-67
2022/08/10 12:20:30;;;;;;;11.07;3.40;;;26.10;58.60;;;;;;5032236;28;20036;-67
2022/08/10 12:23:06;;;;;;;9.85;3.28;;;26.10;58.10;;;;;;5027389;28;20063;-67
2022/08/10 12:25:54;;;;;;;9.60;3.22;;;26.10;58.20;;;;;;5026440;28;20070;-66
2022/08/10 12:28:23;;;;;;;8.02;3.42;;;26.20;58.20;;;;;;5024879;28;20025;-66
2022/08/10 12:30:51;;;;;;;8.60;3.10;;;26.20;58.20;;;;;;5025884;28;20505;-67
2022/08/10 12:33:22;;;;;;;10.38;3.10;;;26.20;58.10;;;;;;5047754;28;20014;-67
2022/08/10 12:35:54;;;;;;;9.82;3.22;;;26.20;58.00;;;;;;5025634;28;20041;-67
2022/08/10 12:38:29;;;;;;;10.85;3.33;;;26.20;58.00;;;;;;5026739;28;20090;-66
2022/08/10 12:40:59;;;;;;;9.07;3.38;;;26.30;58.00;;;;;;5025375;28;20682;-66
2022/08/10 12:43:40;;;;;;;8.98;3.40;;;26.30;58.00;;;;;;5057485;28;20017;-67
2022/08/10 12:46:31;;;;;;;9.50;3.17;;;26.30;58.10;;;;;;5023619;28;20033;-66
2022/08/10 12:49:35;;;;;;;9.48;3.42;;;26.30;57.80;;;;;;5024192;28;20439;-66
2022/08/10 12:52:23;;;;;;;10.57;3.38;;;26.40;57.80;;;;;;5025676;28;20037;-66
2022/08/10 12:54:49;;;;;;;11.95;3.38;;;26.40;57.90;;;;;;5046652;28;20025;-66
2022/08/10 12:57:16;;;;;;;15.02;3.63;;;26.40;57.80;;;;;;5021886;28;20037;-66
2022/08/10 12:59:43;;;;;;;10.45;3.40;;;26.40;57.60;;;;;;5026291;28;20060;-66
2022/08/10 13:02:13;;;;;;;8.60;3.20;;;26.40;57.70;;;;;;5025122;28;20021;-66
2022/08/10 13:04:39;;;;;;;9.48;3.38;;;26.50;57.60;;;;;;5025450;28;20631;-66
2022/08/10 13:07:05;;;;;;;10.25;3.30;;;26.50;57.60;;;;;;5036267;28;20526;-66
2022/08/10 13:09:31;;;;;;;10.43;3.03;;;26.50;57.60;;;;;;5032245;28;20061;-66
2022/08/10 13:12:12;;;;;;;11.98;3.25;;;26.60;57.60;;;;;;5037443;28;20102;-66
2022/08/10 13:14:52;;;;;;;10.48;3.08;;;26.60;57.40;;;;;;5025865;28;20033;-66